createdAt,value
2023-03-22T00:02:59.967Z,55.58
2023-03-22T00:06:13.657Z,59.13
2023-03-22T00:09:25.824Z,55.75
2023-03-22T00:12:37.886Z,52.83
2023-03-22T00:15:50.510Z,54.63
2023-03-22T00:19:05.063Z,55.58
2023-03-22T00:22:17.062Z,56.25
2023-03-22T00:25:29.840Z,57.10
2023-03-22T00:28:42.716Z,54.58
2023-03-22T00:31:56.133Z,56.98
2023-03-22T00:35:09.474Z,59.33
2023-03-22T00:38:27.309Z,58.38
2023-03-22T00:41:35.831Z,56.08
2023-03-22T00:44:47.936Z,56.05
2023-03-22T00:48:00.084Z,56.25
2023-03-22T00:51:14.102Z,53.28
2023-03-22T00:54:26.510Z,51.70
2023-03-22T00:57:38.758Z,51.75
2023-03-22T01:00:51.209Z,54.35
2023-03-22T01:04:05.252Z,51.65
2023-03-22T01:07:18.145Z,54.85
2023-03-22T01:10:30.668Z,52.48
2023-03-22T01:13:45.687Z,55.03
2023-03-22T01:16:58.855Z,54.90
2023-03-22T01:20:14.803Z,55.48
2023-03-22T01:23:27.229Z,54.60
2023-03-22T01:26:39.143Z,52.03
2023-03-22T01:29:51.477Z,48.60
2023-03-22T01:33:03.648Z,49.70
2023-03-22T01:36:18.454Z,54.55
2023-03-22T01:39:32.446Z,53.70
2023-03-22T01:42:47.125Z,50.05
2023-03-22T01:46:02.373Z,48.60
2023-03-22T01:49:19.319Z,49.40
2023-03-22T01:52:32.129Z,49.88
2023-03-22T01:55:46.979Z,53.68
2023-03-22T01:59:02.372Z,54.38
2023-03-22T02:02:19.617Z,50.15
2023-03-22T02:05:34.388Z,51.55
2023-03-22T02:08:46.897Z,47.20
2023-03-22T02:12:06.988Z,51.38
2023-03-22T02:15:23.596Z,49.15
2023-03-22T02:19:10.608Z,50.68
2023-03-22T02:22:57.649Z,49.38
2023-03-22T02:27:02.933Z,52.65
2023-03-22T02:30:49.905Z,52.70
2023-03-22T02:34:55.161Z,48.55
2023-03-22T02:38:58.255Z,49.10
2023-03-22T02:42:31.873Z,49.08
2023-03-22T02:45:49.441Z,50.63
2023-03-22T02:49:08.270Z,49.23
2023-03-22T02:52:25.191Z,47.10
2023-03-22T02:55:42.452Z,47.65
2023-03-22T03:02:09.396Z,49.60
2023-03-22T03:05:24.336Z,47.28
2023-03-22T03:08:39.421Z,42.63
2023-03-22T03:11:54.152Z,39.13
2023-03-22T03:15:07.988Z,39.18
2023-03-22T03:18:32.340Z,39.35
2023-03-22T03:21:51.317Z,44.23
2023-03-22T03:25:09.023Z,39.53
2023-03-22T03:28:30.452Z,42.33
2023-03-22T03:31:48.811Z,39.10
2023-03-22T03:35:06.071Z,39.90
2023-03-22T03:38:23.655Z,39.83
2023-03-22T03:41:38.419Z,37.73
2023-03-22T03:44:51.344Z,38.18
2023-03-22T03:48:08.882Z,36.08
2023-03-22T03:51:22.933Z,35.53
2023-03-22T03:54:35.133Z,34.78
2023-03-22T03:57:48.376Z,35.25
2023-03-22T04:01:00.463Z,34.10
2023-03-22T04:04:26.707Z,34.50
2023-03-22T04:07:43.932Z,37.50
2023-03-22T04:10:58.695Z,37.65
2023-03-22T04:14:12.134Z,34.25
2023-03-22T04:17:24.447Z,34.18
2023-03-22T04:20:39.297Z,31.00
2023-03-22T04:23:51.678Z,34.83
2023-03-22T04:27:03.892Z,35.48
2023-03-22T04:30:22.347Z,34.03
2023-03-22T04:33:47.601Z,35.25
2023-03-22T04:37:08.199Z,33.03
2023-03-22T04:40:27.268Z,31.50
2023-03-22T04:43:39.361Z,33.05
2023-03-22T04:46:53.532Z,33.40
2023-03-22T04:50:05.821Z,34.05
2023-03-22T04:53:19.778Z,33.58
2023-03-22T04:56:32.168Z,32.98
2023-03-22T04:59:44.817Z,30.85
2023-03-22T05:02:56.939Z,31.13
2023-03-22T05:06:14.290Z,34.43
2023-03-22T05:09:28.725Z,34.60
2023-03-22T05:12:41.881Z,34.05
2023-03-22T05:16:00.069Z,32.63
2023-03-22T05:19:14.853Z,30.90
2023-03-22T05:22:29.521Z,31.98
2023-03-22T05:25:45.307Z,32.08
2023-03-22T05:29:03.383Z,30.38
2023-03-22T05:32:18.503Z,30.38
2023-03-22T05:35:32.164Z,29.18
2023-03-22T05:38:46.660Z,28.03
2023-03-22T05:41:59.346Z,27.53
2023-03-22T05:45:15.017Z,32.48
2023-03-22T05:51:40.767Z,31.28
2023-03-22T05:54:53.147Z,27.70
2023-03-22T05:58:05.654Z,30.33
2023-03-22T06:01:21.678Z,54.00
2023-03-22T06:04:33.653Z,50.85
2023-03-22T06:07:51.072Z,33.15
2023-03-22T06:11:05.278Z,29.83
2023-03-22T06:14:17.730Z,26.00
2023-03-22T06:17:44.418Z,25.78
2023-03-22T06:20:58.387Z,27.45
2023-03-22T06:24:11.848Z,29.90
2023-03-22T06:27:25.569Z,31.73
2023-03-22T06:30:38.469Z,43.38
2023-03-22T06:34:05.955Z,35.45
2023-03-22T06:37:20.328Z,31.60
2023-03-22T06:40:35.992Z,29.18
2023-03-22T06:43:48.251Z,29.98
2023-03-22T06:47:19.999Z,31.13
2023-03-22T06:50:40.286Z,30.53
2023-03-22T06:53:55.528Z,25.88
2023-03-22T06:57:08.286Z,59.80
2023-03-22T07:00:24.351Z,31.33
2023-03-22T07:03:36.404Z,27.65
2023-03-22T07:06:50.610Z,28.80
2023-03-22T07:10:03.523Z,35.23
2023-03-22T07:13:16.968Z,33.08
2023-03-22T07:16:30.389Z,40.58
2023-03-22T07:19:45.157Z,28.45
2023-03-22T07:22:59.017Z,28.90
2023-03-22T07:26:13.483Z,29.10
2023-03-22T07:29:27.010Z,33.35
2023-03-22T07:32:39.848Z,30.93
2023-03-22T07:35:53.969Z,32.65
2023-03-22T07:39:06.300Z,59.13
2023-03-22T07:42:20.491Z,31.43
2023-03-22T07:45:52.631Z,30.33
2023-03-22T07:49:23.265Z,30.38
2023-03-22T07:52:50.409Z,29.73
2023-03-22T07:56:03.389Z,26.88
2023-03-22T07:59:16.652Z,26.28
2023-03-22T08:02:30.519Z,30.40
2023-03-22T08:05:46.381Z,36.45
2023-03-22T08:08:59.748Z,26.80
2023-03-22T08:12:12.500Z,25.25
2023-03-22T08:15:25.561Z,25.15
2023-03-22T08:18:38.441Z,22.50
2023-03-22T08:21:51.651Z,23.58
2023-03-22T08:25:09.950Z,24.78
2023-03-22T08:28:23.568Z,23.73
2023-03-22T08:31:36.179Z,24.80
2023-03-22T08:34:49.518Z,43.45
2023-03-22T08:38:02.941Z,49.73
2023-03-22T08:41:17.158Z,29.03
2023-03-22T08:44:29.394Z,24.08
2023-03-22T08:47:41.843Z,24.58
2023-03-22T08:50:54.663Z,26.25
2023-03-22T08:54:10.499Z,24.98
2023-03-22T08:57:38.936Z,25.23
2023-03-22T09:00:53.703Z,25.30
2023-03-22T09:04:11.569Z,23.45
2023-03-22T09:07:24.626Z,24.83
2023-03-22T09:10:39.085Z,23.90
2023-03-22T09:13:53.010Z,23.88
2023-03-22T09:17:07.384Z,32.48
2023-03-22T09:20:22.291Z,40.55
2023-03-22T09:23:35.625Z,23.90
2023-03-22T09:26:48.142Z,21.60
2023-03-22T09:30:02.499Z,22.75
2023-03-22T09:33:17.486Z,24.60
2023-03-22T09:36:32.462Z,27.63
2023-03-22T09:39:45.429Z,25.18
2023-03-22T09:43:02.216Z,23.75
2023-03-22T09:46:20.633Z,24.23
2023-03-22T09:49:52.528Z,23.68
2023-03-22T09:52:53.440Z,23.38
2023-03-22T09:56:11.755Z,23.90
2023-03-22T09:59:30.153Z,26.23
2023-03-22T10:02:53.617Z,133.65
2023-03-22T10:06:11.574Z,43.40
2023-03-22T10:09:29.667Z,24.63
2023-03-22T10:12:48.002Z,22.83
2023-03-22T10:16:03.266Z,22.45
2023-03-22T10:19:23.996Z,21.83
2023-03-22T10:22:40.244Z,19.58
2023-03-22T10:25:54.144Z,20.47
2023-03-22T10:29:09.578Z,19.00
2023-03-22T10:32:26.370Z,18.85
2023-03-22T10:35:39.607Z,21.60
2023-03-22T10:38:56.939Z,19.93
2023-03-22T10:42:15.446Z,18.45
2023-03-22T10:45:31.143Z,18.23
2023-03-22T10:48:48.111Z,18.13
2023-03-22T10:55:18.210Z,16.05
2023-03-22T11:01:51.437Z,14.68
2023-03-22T11:08:21.267Z,13.85
2023-03-22T11:11:35.984Z,12.23
2023-03-22T11:14:51.454Z,12.85
2023-03-22T11:18:09.261Z,50.13
2023-03-22T11:21:23.625Z,16.25
2023-03-22T11:24:39.405Z,13.10
2023-03-22T11:28:00.664Z,11.70
2023-03-22T11:31:17.571Z,9.53
2023-03-22T11:37:48.826Z,11.00
2023-03-22T11:41:06.525Z,10.80
2023-03-22T11:44:23.769Z,10.70
2023-03-22T11:47:41.689Z,10.60
2023-03-22T11:50:56.327Z,10.45
2023-03-22T11:54:15.903Z,10.25
2023-03-22T11:57:33.606Z,10.08
2023-03-22T12:00:46.567Z,9.50
2023-03-22T12:04:03.047Z,10.28
2023-03-22T12:07:23.853Z,10.68
2023-03-22T12:10:41.255Z,10.60
2023-03-22T12:13:59.190Z,10.10
2023-03-22T12:17:17.743Z,10.13
2023-03-22T12:20:39.624Z,10.05
2023-03-22T12:23:52.098Z,8.20
2023-03-22T12:27:08.800Z,8.60
2023-03-22T12:30:26.316Z,8.15
2023-03-22T12:33:42.406Z,8.70
2023-03-22T12:36:58.569Z,7.73
2023-03-22T12:40:18.529Z,6.95
2023-03-22T12:43:41.975Z,7.00
2023-03-22T12:47:00.001Z,6.88
2023-03-22T12:50:18.755Z,6.55
2023-03-22T12:53:39.438Z,6.38
2023-03-22T12:56:53.042Z,5.20
2023-03-22T13:00:13.748Z,4.98
2023-03-22T13:03:32.912Z,4.65
2023-03-22T13:07:14.629Z,4.38
2023-03-22T13:11:17.799Z,5.30
2023-03-22T13:15:03.644Z,3.75
2023-03-22T13:18:43.779Z,3.73
2023-03-22T13:22:03.166Z,4.60
2023-03-22T13:25:33.290Z,3.03
2023-03-22T13:28:47.238Z,2.70
2023-03-22T13:32:06.495Z,3.40
2023-03-22T13:35:31.758Z,3.78
2023-03-22T13:38:48.217Z,3.93
2023-03-22T13:42:18.446Z,3.55
2023-03-22T13:45:41.365Z,3.50
2023-03-22T13:49:21.667Z,3.50
2023-03-22T13:52:43.311Z,3.58
2023-03-22T13:56:07.904Z,4.08
2023-03-22T13:59:25.519Z,4.38
2023-03-22T14:02:41.893Z,4.03
2023-03-22T14:06:02.757Z,4.48
2023-03-22T14:09:24.516Z,4.08
2023-03-22T14:12:44.308Z,4.00
2023-03-22T14:16:00.223Z,4.13
2023-03-22T14:19:17.567Z,3.77
2023-03-22T14:48:42.707Z,2.68
2023-03-22T14:55:12.200Z,2.80
2023-03-22T14:58:26.186Z,2.45
2023-03-22T15:01:42.033Z,3.10
2023-03-22T15:04:54.943Z,2.80
2023-03-22T15:08:17.302Z,3.23
2023-03-22T15:11:29.962Z,3.70
2023-03-22T15:14:43.396Z,3.25
2023-03-22T15:17:57.160Z,2.95
2023-03-22T15:21:14.265Z,3.38
2023-03-22T15:24:38.760Z,3.28
2023-03-22T15:27:51.694Z,3.13
2023-03-22T15:31:07.319Z,3.70
2023-03-22T15:34:27.263Z,4.38
2023-03-22T15:37:43.636Z,3.38
2023-03-22T15:40:56.347Z,3.70
2023-03-22T15:44:19.416Z,3.50
2023-03-22T15:47:32.105Z,4.43
2023-03-22T15:50:49.971Z,3.90
2023-03-22T15:54:12.928Z,3.55
2023-03-22T15:57:33.558Z,4.15
2023-03-22T16:00:47.154Z,4.10
2023-03-22T16:04:03.713Z,4.25
2023-03-22T16:13:26.408Z,4.80
2023-03-22T16:19:39.766Z,4.30
2023-03-22T16:22:56.074Z,4.55
2023-03-22T16:26:08.571Z,4.65
2023-03-22T16:29:20.892Z,4.48
2023-03-22T16:32:35.215Z,5.48
2023-03-22T16:35:48.015Z,4.73
2023-03-22T16:39:00.338Z,5.63
2023-03-22T16:42:19.440Z,5.30
2023-03-22T16:45:34.660Z,4.70
2023-03-22T16:48:47.443Z,4.73
2023-03-22T16:51:59.800Z,4.50
2023-03-22T16:55:19.545Z,4.70
2023-03-22T16:58:32.043Z,5.10
2023-03-22T17:01:44.915Z,4.90
2023-03-22T17:04:57.321Z,4.90
2023-03-22T17:08:13.293Z,5.93
2023-03-22T17:11:30.138Z,5.15
2023-03-22T17:14:42.106Z,5.58
2023-03-22T17:17:54.968Z,5.83
2023-03-22T17:21:07.248Z,7.08
2023-03-22T17:24:19.833Z,11.33
2023-03-22T17:27:32.109Z,6.70
2023-03-22T17:30:44.866Z,6.05
2023-03-22T17:33:58.115Z,6.10
2023-03-22T17:37:10.308Z,6.28
2023-03-22T17:43:38.328Z,7.55
2023-03-22T17:50:05.609Z,7.88
2023-03-22T17:53:40.543Z,8.05
2023-03-22T17:57:13.943Z,8.83
2023-03-22T17:59:48.822Z,9.93
2023-03-22T18:03:01.677Z,13.70
2023-03-22T18:06:16.424Z,15.25
2023-03-22T18:09:31.218Z,13.80
2023-03-22T18:12:46.387Z,13.15
2023-03-22T18:15:58.564Z,12.23
2023-03-22T18:19:11.161Z,12.08
2023-03-22T18:22:24.042Z,11.85
2023-03-22T18:25:41.792Z,12.25
2023-03-22T18:28:51.275Z,12.85
2023-03-22T18:32:12.188Z,13.00
2023-03-22T18:35:19.172Z,13.33
2023-03-22T18:39:16.849Z,13.65
2023-03-22T18:41:50.915Z,12.83
2023-03-22T18:45:04.050Z,14.25
2023-03-22T18:48:17.420Z,13.28
2023-03-22T18:51:31.793Z,20.68
2023-03-22T18:54:44.147Z,15.70
2023-03-22T18:57:56.726Z,13.30
2023-03-22T19:01:09.513Z,13.90
2023-03-22T19:04:21.864Z,14.30
2023-03-22T19:10:48.421Z,15.40
2023-03-22T19:14:51.079Z,15.88
2023-03-22T19:17:15.111Z,15.63
2023-03-22T19:20:35.110Z,14.95
2023-03-22T19:23:42.538Z,14.48
2023-03-22T19:27:07.180Z,14.05
2023-03-22T19:30:13.616Z,14.75
2023-03-22T19:33:39.812Z,14.88
2023-03-22T19:36:42.494Z,14.48
2023-03-22T19:40:45.171Z,13.83
2023-03-22T19:43:09.048Z,13.63
2023-03-22T19:46:21.637Z,13.98
2023-03-22T19:49:36.729Z,12.60
2023-03-22T19:52:49.153Z,11.33
2023-03-22T19:56:01.358Z,11.15
2023-03-22T19:59:16.913Z,11.55
2023-03-22T20:02:28.444Z,11.98
2023-03-22T20:05:49.486Z,10.88
2023-03-22T20:08:56.122Z,11.60
2023-03-22T20:12:08.870Z,11.10
2023-03-22T20:15:22.318Z,10.60
2023-03-22T20:18:36.305Z,11.33
2023-03-22T20:21:48.827Z,10.88
2023-03-22T20:25:01.226Z,10.18
2023-03-22T20:28:13.699Z,11.33
2023-03-22T20:31:27.589Z,10.60
2023-03-22T20:34:40.101Z,10.33
2023-03-22T20:37:52.705Z,10.10
2023-03-22T20:41:05.977Z,10.30
2023-03-22T20:44:18.725Z,10.30
2023-03-22T20:47:31.964Z,11.05
2023-03-22T20:50:47.698Z,10.73
2023-03-22T20:54:00.987Z,10.50
2023-03-22T20:57:13.949Z,10.98
2023-03-22T21:00:27.387Z,10.15
2023-03-22T21:03:42.013Z,10.33
2023-03-22T21:06:54.776Z,10.00
2023-03-22T21:10:08.740Z,10.75
2023-03-22T21:13:22.204Z,11.83
2023-03-22T21:16:34.961Z,10.30
2023-03-22T21:19:49.114Z,10.85
2023-03-22T21:23:02.327Z,10.65
2023-03-22T21:26:18.349Z,11.33
2023-03-22T21:29:31.102Z,11.48
2023-03-22T21:32:47.845Z,10.93
2023-03-22T21:36:01.088Z,11.13
2023-03-22T21:39:13.692Z,10.73
2023-03-22T21:42:26.830Z,11.70
2023-03-22T21:45:39.202Z,11.38
2023-03-22T21:48:54.224Z,11.08
2023-03-22T21:52:07.800Z,11.95
2023-03-22T21:55:20.731Z,11.15
2023-03-22T21:58:33.520Z,10.50
2023-03-22T22:01:47.464Z,9.90
2023-03-22T22:05:00.152Z,10.20
2023-03-22T22:08:13.635Z,10.13
2023-03-22T22:11:27.139Z,10.05
2023-03-22T22:14:39.510Z,9.80
2023-03-22T22:17:52.245Z,10.05
2023-03-22T22:21:09.199Z,9.25
2023-03-22T22:24:21.547Z,10.25
2023-03-22T22:27:34.598Z,9.50
2023-03-22T22:30:46.811Z,8.85
2023-03-22T22:34:00.771Z,9.70
2023-03-22T22:37:13.054Z,9.30
2023-03-22T22:40:25.920Z,8.83
2023-03-22T22:43:38.539Z,8.03
2023-03-22T22:46:50.772Z,9.40
2023-03-22T22:50:04.204Z,8.58
2023-03-22T22:53:16.705Z,9.15
2023-03-22T22:56:30.092Z,8.95
2023-03-22T22:59:42.497Z,8.38
2023-03-22T23:02:54.755Z,8.68
2023-03-22T23:06:09.215Z,8.08
2023-03-22T23:09:21.933Z,8.53
2023-03-22T23:12:34.590Z,7.78
2023-03-22T23:15:50.094Z,8.23
2023-03-22T23:19:03.053Z,8.20
2023-03-22T23:22:15.359Z,7.05
2023-03-22T23:25:28.394Z,8.45
2023-03-22T23:28:42.957Z,6.45
2023-03-22T23:31:55.184Z,7.65
2023-03-22T23:35:08.948Z,7.73
2023-03-22T23:38:21.513Z,7.73
2023-03-22T23:41:37.240Z,6.95
2023-03-22T23:44:50.176Z,6.93
2023-03-22T23:48:03.146Z,7.05
2023-03-22T23:51:17.406Z,6.80
2023-03-22T23:54:29.439Z,7.15
2023-03-22T23:57:42.330Z,6.70
